createdAt,value
2022-12-16T00:00:09.153Z,142.40
2022-12-16T00:02:36.233Z,140.18
2022-12-16T00:05:04.030Z,134.98
2022-12-16T00:07:30.694Z,134.68
2022-12-16T00:09:57.294Z,135.80
2022-12-16T00:12:23.827Z,137.90
2022-12-16T00:14:50.387Z,129.23
2022-12-16T00:17:17.070Z,211.23
2022-12-16T00:19:43.703Z,186.23
2022-12-16T00:22:10.453Z,160.25
2022-12-16T00:24:37.276Z,152.25
2022-12-16T00:27:04.114Z,164.45
2022-12-16T00:29:31.114Z,167.50
2022-12-16T00:31:57.825Z,166.10
2022-12-16T00:34:24.669Z,166.38
2022-12-16T00:36:51.870Z,167.75
2022-12-16T00:39:18.878Z,161.32
2022-12-16T00:41:47.580Z,150.65
2022-12-16T00:44:14.206Z,155.68
2022-12-16T00:46:40.790Z,145.23
2022-12-16T00:49:07.406Z,145.80
2022-12-16T00:51:34.027Z,134.82
2022-12-16T00:54:00.634Z,139.95
2022-12-16T00:56:27.442Z,139.38
2022-12-16T00:58:53.985Z,132.23
2022-12-16T01:01:21.583Z,137.88
2022-12-16T01:03:48.440Z,135.88
2022-12-16T01:06:17.933Z,135.88
2022-12-16T01:08:51.039Z,128.23
2022-12-16T01:11:20.239Z,130.85
2022-12-16T01:13:51.339Z,135.02
2022-12-16T01:16:19.575Z,134.95
2022-12-16T01:18:46.359Z,135.32
2022-12-16T01:21:15.087Z,131.73
2022-12-16T01:23:41.705Z,138.10
2022-12-16T01:26:13.349Z,136.13
2022-12-16T01:28:39.848Z,185.55
2022-12-16T01:31:06.673Z,134.75
2022-12-16T01:33:34.049Z,137.48
2022-12-16T01:36:02.385Z,140.68
2022-12-16T01:38:29.670Z,153.15
2022-12-16T01:40:56.553Z,158.50
2022-12-16T01:43:26.879Z,140.57
2022-12-16T01:45:59.076Z,143.88
2022-12-16T01:48:34.978Z,137.13
2022-12-16T01:51:09.865Z,155.75
2022-12-16T01:53:38.991Z,173.35
2022-12-16T01:56:06.127Z,149.35
2022-12-16T01:58:37.269Z,131.13
2022-12-16T02:01:04.623Z,138.82
2022-12-16T02:03:35.737Z,122.18
2022-12-16T02:06:05.582Z,118.35
2022-12-16T02:08:32.237Z,121.03
2022-12-16T02:11:17.562Z,136.68
2022-12-16T02:14:12.743Z,122.10
2022-12-16T02:17:06.593Z,139.40
2022-12-16T02:20:21.236Z,130.82
2022-12-16T02:23:17.171Z,118.85
2022-12-16T02:26:05.619Z,120.70
2022-12-16T02:28:50.202Z,114.53
2022-12-16T02:31:35.563Z,131.27
2022-12-16T02:34:23.827Z,119.18
2022-12-16T02:37:07.859Z,117.70
2022-12-16T02:39:45.704Z,99.25
2022-12-16T02:42:32.116Z,93.93
2022-12-16T02:45:12.290Z,87.47
2022-12-16T02:47:39.466Z,82.80
2022-12-16T02:50:31.905Z,77.43
2022-12-16T02:53:01.402Z,74.70
2022-12-16T02:55:52.920Z,69.22
2022-12-16T02:58:38.346Z,63.38
2022-12-16T03:01:37.264Z,59.97
2022-12-16T03:04:15.919Z,57.70
2022-12-16T03:06:46.358Z,60.15
2022-12-16T03:09:17.972Z,54.53
2022-12-16T03:11:47.639Z,57.35
2022-12-16T03:14:18.492Z,66.28
2022-12-16T03:16:47.899Z,84.72
2022-12-16T03:19:14.546Z,75.63
2022-12-16T03:22:05.869Z,88.72
2022-12-16T03:24:33.089Z,79.95
2022-12-16T03:27:23.939Z,88.25
2022-12-16T03:30:19.959Z,84.22
2022-12-16T03:32:49.494Z,90.00
2022-12-16T03:35:34.585Z,77.82
2022-12-16T03:38:04.057Z,63.70
2022-12-16T03:40:33.066Z,58.15
2022-12-16T03:43:01.805Z,63.08
2022-12-16T03:45:35.725Z,70.40
2022-12-16T03:48:02.418Z,69.35
2022-12-16T03:50:34.647Z,72.18
2022-12-16T03:53:02.053Z,71.25
2022-12-16T03:55:29.227Z,72.90
2022-12-16T03:57:57.249Z,78.93
2022-12-16T04:00:25.476Z,67.47
2022-12-16T04:02:52.685Z,69.22
2022-12-16T04:05:19.598Z,67.63
2022-12-16T04:07:46.260Z,66.25
2022-12-16T04:10:12.854Z,67.97
2022-12-16T04:12:57.642Z,68.03
2022-12-16T04:15:43.386Z,62.25
2022-12-16T04:18:35.621Z,55.20
2022-12-16T04:21:21.503Z,62.05
2022-12-16T04:24:09.847Z,63.83
2022-12-16T04:26:56.599Z,62.50
2022-12-16T04:29:23.742Z,49.13
2022-12-16T04:31:51.896Z,50.22
2022-12-16T04:34:29.427Z,53.00
2022-12-16T04:37:19.999Z,49.50
2022-12-16T04:40:05.950Z,48.05
2022-12-16T04:42:51.921Z,51.72
2022-12-16T04:45:37.615Z,49.33
2022-12-16T04:48:22.857Z,46.58
2022-12-16T04:51:08.313Z,44.35
2022-12-16T04:53:53.638Z,55.00
2022-12-16T04:56:38.755Z,51.35
2022-12-16T04:59:23.669Z,55.92
2022-12-16T05:02:08.767Z,52.53
2022-12-16T05:04:54.012Z,49.28
2022-12-16T05:07:39.296Z,62.28
2022-12-16T05:10:26.257Z,54.28
2022-12-16T05:13:14.562Z,54.20
2022-12-16T05:16:00.143Z,53.40
2022-12-16T05:18:45.870Z,51.80
2022-12-16T05:21:31.103Z,55.20
2022-12-16T05:24:16.278Z,51.05
2022-12-16T05:27:01.188Z,51.50
2022-12-16T05:29:46.245Z,50.58
2022-12-16T05:32:31.407Z,48.40
2022-12-16T05:35:16.556Z,53.13
2022-12-16T05:38:01.829Z,59.35
2022-12-16T05:40:46.714Z,55.47
2022-12-16T05:43:31.992Z,52.08
2022-12-16T05:46:17.788Z,55.63
2022-12-16T05:49:02.711Z,54.13
2022-12-16T05:51:48.238Z,55.53
2022-12-16T05:54:33.233Z,55.10
2022-12-16T05:57:29.220Z,53.85
2022-12-16T06:00:14.176Z,50.95
2022-12-16T06:02:59.735Z,57.28
2022-12-16T06:05:45.036Z,47.58
2022-12-16T06:08:29.812Z,52.17
2022-12-16T06:11:14.695Z,51.08
2022-12-16T06:13:59.706Z,51.92
2022-12-16T06:17:04.938Z,49.42
2022-12-16T06:19:49.769Z,52.42
2022-12-16T06:22:34.940Z,51.47
2022-12-16T06:25:20.359Z,49.65
2022-12-16T06:28:12.579Z,49.80
2022-12-16T06:30:58.032Z,48.78
2022-12-16T06:33:43.506Z,54.55
2022-12-16T06:36:28.870Z,46.80
2022-12-16T06:39:14.076Z,46.63
2022-12-16T06:41:59.605Z,46.20
2022-12-16T06:44:44.734Z,46.40
2022-12-16T06:47:29.960Z,46.17
2022-12-16T06:50:15.075Z,58.50
2022-12-16T06:53:01.960Z,48.75
2022-12-16T06:55:47.840Z,45.17
2022-12-16T06:58:33.307Z,58.58
2022-12-16T07:01:18.515Z,41.08
2022-12-16T07:04:03.667Z,44.22
2022-12-16T07:06:48.990Z,48.67
2022-12-16T07:09:34.203Z,47.17
2022-12-16T07:12:19.655Z,51.97
2022-12-16T07:15:06.076Z,55.53
2022-12-16T07:17:51.089Z,53.60
2022-12-16T07:20:36.183Z,53.67
2022-12-16T07:23:21.458Z,51.88
2022-12-16T07:26:06.601Z,49.05
2022-12-16T07:28:52.017Z,56.25
2022-12-16T07:31:37.626Z,57.70
2022-12-16T07:34:22.658Z,54.72
2022-12-16T07:37:07.632Z,56.03
2022-12-16T07:39:55.097Z,50.30
2022-12-16T07:42:41.592Z,56.15
2022-12-16T07:45:27.753Z,69.28
2022-12-16T07:48:13.189Z,64.78
2022-12-16T07:50:59.416Z,64.18
2022-12-16T07:53:44.705Z,57.33
2022-12-16T07:56:30.068Z,56.08
2022-12-16T07:59:15.478Z,51.38
2022-12-16T08:02:00.857Z,57.45
2022-12-16T08:04:46.074Z,52.95
2022-12-16T08:07:31.560Z,52.60
2022-12-16T08:10:16.626Z,43.15
2022-12-16T08:13:01.996Z,47.70
2022-12-16T08:15:47.179Z,51.33
2022-12-16T08:18:32.309Z,53.67
2022-12-16T08:21:17.458Z,47.17
2022-12-16T08:24:02.691Z,47.90
2022-12-16T08:26:47.951Z,45.25
2022-12-16T08:29:48.669Z,43.38
2022-12-16T08:32:34.718Z,46.22
2022-12-16T08:35:20.819Z,48.00
2022-12-16T08:38:12.235Z,50.83
2022-12-16T08:41:02.843Z,49.58
2022-12-16T08:43:52.687Z,45.40
2022-12-16T08:46:38.614Z,44.78
2022-12-16T08:49:24.438Z,43.83
2022-12-16T08:52:10.161Z,44.17
2022-12-16T08:54:55.605Z,41.40
2022-12-16T08:57:41.949Z,35.03
2022-12-16T09:00:27.974Z,39.83
2022-12-16T09:03:17.459Z,35.13
2022-12-16T09:06:03.633Z,34.40
2022-12-16T09:08:49.204Z,32.83
2022-12-16T09:11:34.566Z,30.08
2022-12-16T09:14:20.078Z,29.30
2022-12-16T09:17:05.212Z,31.15
2022-12-16T09:19:51.134Z,29.13
2022-12-16T09:22:36.079Z,27.95
2022-12-16T09:25:21.312Z,31.35
2022-12-16T09:28:09.268Z,30.33
2022-12-16T09:30:55.629Z,28.73
2022-12-16T09:33:40.953Z,30.83
2022-12-16T09:36:26.264Z,34.90
2022-12-16T09:39:11.337Z,27.92
2022-12-16T09:42:15.151Z,27.55
2022-12-16T09:45:25.609Z,46.65
2022-12-16T09:48:24.571Z,49.50
2022-12-16T09:51:14.385Z,50.65
2022-12-16T09:54:21.197Z,57.85
2022-12-16T09:57:07.665Z,51.22
2022-12-16T09:59:58.087Z,53.10
2022-12-16T10:02:44.726Z,47.97
2022-12-16T10:05:31.817Z,49.95
2022-12-16T10:08:34.043Z,50.47
2022-12-16T10:11:36.856Z,48.80
2022-12-16T10:14:50.190Z,43.70
2022-12-16T10:17:43.196Z,41.03
2022-12-16T10:20:48.394Z,41.58
2022-12-16T10:23:51.970Z,42.20
2022-12-16T10:27:10.670Z,41.58
2022-12-16T10:30:01.330Z,39.30
2022-12-16T10:33:06.265Z,38.53
2022-12-16T10:36:01.022Z,39.33
2022-12-16T10:38:49.287Z,38.97
2022-12-16T10:41:36.454Z,37.83
2022-12-16T10:44:31.369Z,38.00
2022-12-16T10:47:16.543Z,37.97
2022-12-16T10:50:02.211Z,37.03
2022-12-16T10:52:47.262Z,38.63
2022-12-16T10:55:49.653Z,38.75
2022-12-16T10:58:39.630Z,37.65
2022-12-16T11:01:41.108Z,36.17
2022-12-16T11:04:52.396Z,35.33
2022-12-16T11:08:13.730Z,38.50
2022-12-16T11:11:01.322Z,36.33
2022-12-16T11:13:51.973Z,39.08
2022-12-16T11:16:41.606Z,34.13
2022-12-16T11:19:44.764Z,33.55
2022-12-16T11:22:39.916Z,37.03
2022-12-16T11:25:31.881Z,37.33
2022-12-16T11:28:31.386Z,36.13
2022-12-16T11:31:32.079Z,36.58
2022-12-16T11:34:19.055Z,35.28
2022-12-16T11:37:05.965Z,32.22
2022-12-16T11:39:52.910Z,34.58
2022-12-16T11:42:50.968Z,33.35
2022-12-16T11:45:39.405Z,31.17
2022-12-16T11:48:50.436Z,32.22
2022-12-16T11:51:37.974Z,33.35
2022-12-16T11:54:40.858Z,33.92
2022-12-16T11:57:37.680Z,34.90
2022-12-16T12:00:24.460Z,32.38
2022-12-16T12:03:42.274Z,31.45
2022-12-16T12:07:00.275Z,31.73
2022-12-16T12:09:46.238Z,28.02
2022-12-16T12:13:12.287Z,22.85
2022-12-16T12:16:25.677Z,22.25
2022-12-16T12:19:34.187Z,22.27
2022-12-16T12:22:29.928Z,22.10
2022-12-16T12:25:52.992Z,19.58
2022-12-16T12:29:06.382Z,21.23
2022-12-16T12:32:06.926Z,19.77
2022-12-16T12:34:58.263Z,19.15
2022-12-16T12:38:01.195Z,20.52
2022-12-16T12:41:02.448Z,18.73
2022-12-16T12:44:03.066Z,19.88
2022-12-16T12:47:03.467Z,18.48
2022-12-16T12:49:57.798Z,21.85
2022-12-16T12:53:09.503Z,21.90
2022-12-16T12:56:14.265Z,22.50
2022-12-16T12:59:01.058Z,23.63
2022-12-16T13:01:51.727Z,21.48
2022-12-16T13:04:41.633Z,21.73
2022-12-16T13:07:27.884Z,23.00
2022-12-16T13:10:43.766Z,24.02
2022-12-16T13:13:48.887Z,24.80
2022-12-16T13:17:03.265Z,24.55
2022-12-16T13:19:48.239Z,26.45
2022-12-16T13:22:55.857Z,25.60
2022-12-16T13:25:59.150Z,24.85
2022-12-16T13:28:47.326Z,27.15
2022-12-16T13:31:32.718Z,24.67
2022-12-16T13:34:43.412Z,26.17
2022-12-16T13:37:56.036Z,24.70
2022-12-16T13:40:42.282Z,25.92
2022-12-16T13:44:15.526Z,24.10
2022-12-16T13:47:09.392Z,25.83
2022-12-16T13:49:54.327Z,24.20
2022-12-16T13:52:42.469Z,25.58
2022-12-16T13:55:34.756Z,23.27
2022-12-16T13:58:29.762Z,23.00
2022-12-16T14:01:23.121Z,22.35
2022-12-16T14:04:11.749Z,23.13
2022-12-16T14:06:57.671Z,21.58
2022-12-16T14:09:53.718Z,22.60
2022-12-16T14:12:59.245Z,22.17
2022-12-16T14:16:08.431Z,22.65
2022-12-16T14:19:29.085Z,23.42
2022-12-16T14:22:16.970Z,23.45
2022-12-16T14:25:02.927Z,23.95
2022-12-16T14:27:51.472Z,24.02
2022-12-16T14:30:40.188Z,30.00
2022-12-16T14:33:45.777Z,26.10
2022-12-16T14:36:44.650Z,27.88
2022-12-16T14:39:32.409Z,27.02
2022-12-16T14:42:17.894Z,26.13
2022-12-16T14:45:08.898Z,29.42
2022-12-16T14:47:58.681Z,28.48
2022-12-16T14:50:48.615Z,30.48
2022-12-16T14:53:49.410Z,28.45
2022-12-16T14:56:35.881Z,26.25
2022-12-16T14:59:27.120Z,27.63
2022-12-16T15:02:16.902Z,28.75
2022-12-16T15:05:02.642Z,26.73
2022-12-16T15:07:56.151Z,25.92
2022-12-16T15:10:59.291Z,25.95
2022-12-16T15:13:44.743Z,26.98
2022-12-16T15:16:39.151Z,29.50
2022-12-16T15:19:25.008Z,27.20
2022-12-16T15:22:10.082Z,25.95
2022-12-16T15:24:57.650Z,25.85
2022-12-16T15:27:55.981Z,23.55
2022-12-16T15:31:00.444Z,27.20
2022-12-16T15:33:48.216Z,27.50
2022-12-16T15:36:49.164Z,28.70
2022-12-16T15:39:41.867Z,27.60
2022-12-16T15:42:39.206Z,28.33
2022-12-16T15:45:34.587Z,26.08
2022-12-16T15:48:30.922Z,31.42
2022-12-16T15:51:16.247Z,28.67
2022-12-16T15:54:01.514Z,25.15
2022-12-16T15:57:00.807Z,28.60
2022-12-16T15:59:51.554Z,28.13
2022-12-16T16:02:39.359Z,28.35
2022-12-16T16:05:32.626Z,26.63
2022-12-16T16:08:18.362Z,29.95
2022-12-16T16:11:08.982Z,27.73
2022-12-16T16:13:53.913Z,28.20
2022-12-16T16:16:39.221Z,27.33
2022-12-16T16:19:34.450Z,28.02
2022-12-16T16:22:19.229Z,27.38
2022-12-16T16:25:04.013Z,22.48
2022-12-16T16:27:49.253Z,28.50
2022-12-16T16:30:34.647Z,33.78
2022-12-16T16:33:19.351Z,36.40
2022-12-16T16:36:04.698Z,39.33
2022-12-16T16:38:49.949Z,42.53
2022-12-16T16:41:35.348Z,43.83
2022-12-16T16:44:20.901Z,43.08
2022-12-16T16:47:06.539Z,38.10
2022-12-16T16:49:59.451Z,40.53
2022-12-16T16:52:45.803Z,45.30
2022-12-16T16:55:36.560Z,33.00
2022-12-16T16:58:29.419Z,44.47
2022-12-16T17:01:14.633Z,41.88
2022-12-16T17:04:00.114Z,41.22
2022-12-16T17:06:45.088Z,35.35
2022-12-16T17:09:30.379Z,35.03
2022-12-16T17:12:15.651Z,33.90
2022-12-16T17:15:00.592Z,34.88
2022-12-16T17:17:45.780Z,41.55
2022-12-16T17:20:35.522Z,51.20
2022-12-16T17:23:21.035Z,53.78
2022-12-16T17:26:05.974Z,41.58
2022-12-16T17:28:51.461Z,45.28
2022-12-16T17:31:37.083Z,34.00
2022-12-16T17:34:22.692Z,41.63
2022-12-16T17:37:07.886Z,39.45
2022-12-16T17:39:53.184Z,34.92
2022-12-16T17:42:43.161Z,32.22
2022-12-16T17:45:31.511Z,33.15
2022-12-16T17:48:16.267Z,32.25
2022-12-16T17:51:01.514Z,34.35
2022-12-16T17:53:51.667Z,30.30
2022-12-16T17:56:38.657Z,29.48
2022-12-16T17:59:23.512Z,27.08
2022-12-16T18:02:08.480Z,21.23
2022-12-16T18:04:53.702Z,24.38
2022-12-16T18:07:38.796Z,20.65
2022-12-16T18:10:24.126Z,24.83
2022-12-16T18:13:09.736Z,17.85
2022-12-16T18:15:54.681Z,23.25
2022-12-16T18:18:45.892Z,24.02
2022-12-16T18:21:32.396Z,24.27
2022-12-16T18:24:17.857Z,30.88
2022-12-16T18:27:02.906Z,24.38
2022-12-16T18:29:55.458Z,25.85
2022-12-16T18:32:40.848Z,28.05
2022-12-16T18:35:26.158Z,27.00
2022-12-16T18:38:16.272Z,26.65
2022-12-16T18:41:01.944Z,27.02
2022-12-16T18:43:47.062Z,30.77
2022-12-16T18:46:32.141Z,26.13
2022-12-16T18:49:17.351Z,24.50
2022-12-16T18:52:03.627Z,25.88
2022-12-16T18:54:49.201Z,25.17
2022-12-16T18:57:39.310Z,26.27
2022-12-16T19:00:25.601Z,27.75
2022-12-16T19:03:10.984Z,16.35
2022-12-16T19:05:56.314Z,25.35
2022-12-16T19:08:41.266Z,26.52
2022-12-16T19:11:26.520Z,27.58
2022-12-16T19:14:11.738Z,25.33
2022-12-16T19:16:57.443Z,30.20
2022-12-16T19:19:42.761Z,31.02
2022-12-16T19:22:27.721Z,25.73
2022-12-16T19:25:13.202Z,21.65
2022-12-16T19:27:58.426Z,20.55
2022-12-16T19:30:43.281Z,20.00
2022-12-16T19:33:28.612Z,18.95
2022-12-16T19:36:15.007Z,23.23
2022-12-16T19:38:59.881Z,18.55
2022-12-16T19:41:45.223Z,19.02
2022-12-16T19:44:31.026Z,18.58
2022-12-16T19:47:15.696Z,19.75
2022-12-16T19:50:00.640Z,17.85
2022-12-16T19:52:45.616Z,16.27
2022-12-16T19:55:30.838Z,16.42
2022-12-16T19:58:16.131Z,18.00
2022-12-16T20:01:01.336Z,21.65
2022-12-16T20:03:47.672Z,21.70
2022-12-16T20:06:33.379Z,21.13
2022-12-16T20:09:18.936Z,21.70
2022-12-16T20:12:03.673Z,20.27
2022-12-16T20:14:48.715Z,19.30
2022-12-16T20:17:34.204Z,24.02
2022-12-16T20:20:19.294Z,27.70
2022-12-16T20:23:04.145Z,22.05
2022-12-16T20:25:49.221Z,30.08
2022-12-16T20:28:34.367Z,25.35
2022-12-16T20:31:22.839Z,25.55
2022-12-16T20:34:14.936Z,36.38
2022-12-16T20:37:00.872Z,27.83
2022-12-16T20:39:52.832Z,36.28
2022-12-16T20:42:43.226Z,35.45
2022-12-16T20:45:28.608Z,33.90
2022-12-16T20:48:13.966Z,45.53
2022-12-16T20:50:59.057Z,43.83
2022-12-16T20:53:44.333Z,34.95
2022-12-16T20:56:29.323Z,35.10
2022-12-16T20:59:14.369Z,43.22
2022-12-16T21:02:22.262Z,48.30
2022-12-16T21:05:04.358Z,54.63
2022-12-16T21:07:49.913Z,20.05
2022-12-16T21:10:35.259Z,41.38
2022-12-16T21:13:28.184Z,39.67
2022-12-16T21:16:16.151Z,35.25
2022-12-16T21:19:02.003Z,40.53
2022-12-16T21:21:47.514Z,49.78
2022-12-16T21:24:32.926Z,61.28
2022-12-16T21:27:18.300Z,54.63
2022-12-16T21:30:03.535Z,56.53
2022-12-16T21:32:48.916Z,50.90
2022-12-16T21:35:34.255Z,48.88
2022-12-16T21:38:19.298Z,55.88
2022-12-16T21:41:10.313Z,56.28
2022-12-16T21:43:55.268Z,50.58
2022-12-16T21:46:42.385Z,51.75
2022-12-16T21:49:28.167Z,44.85
2022-12-16T21:52:13.706Z,46.25
2022-12-16T21:54:58.951Z,41.55
2022-12-16T21:57:43.796Z,37.08
2022-12-16T22:00:29.611Z,37.20
2022-12-16T22:03:15.040Z,39.97
2022-12-16T22:06:00.019Z,38.58
2022-12-16T22:08:45.467Z,38.47
2022-12-16T22:11:32.379Z,40.70
2022-12-16T22:14:17.377Z,41.08
2022-12-16T22:17:05.384Z,41.05
2022-12-16T22:19:50.579Z,41.75
2022-12-16T22:22:36.909Z,40.10
2022-12-16T22:25:22.095Z,42.20
2022-12-16T22:28:06.878Z,44.42
2022-12-16T22:30:52.330Z,45.08
2022-12-16T22:33:41.223Z,45.50
2022-12-16T22:36:27.205Z,46.38
2022-12-16T22:39:12.389Z,45.92
2022-12-16T22:41:57.630Z,43.67
2022-12-16T22:44:43.046Z,43.58
2022-12-16T22:47:28.116Z,39.90
2022-12-16T22:50:12.992Z,39.63
2022-12-16T22:52:57.866Z,38.45
2022-12-16T22:55:50.269Z,39.95
2022-12-16T22:58:35.649Z,35.85
2022-12-16T23:01:21.132Z,32.47
2022-12-16T23:04:06.397Z,34.28
2022-12-16T23:06:51.991Z,33.83
2022-12-16T23:12:40.373Z,38.35
2022-12-16T23:15:26.595Z,36.70
2022-12-16T23:18:12.122Z,35.70
2022-12-16T23:20:57.000Z,38.60
2022-12-16T23:23:42.596Z,39.67
2022-12-16T23:26:27.984Z,37.63
2022-12-16T23:29:13.221Z,38.50
2022-12-16T23:31:58.385Z,37.85
2022-12-16T23:34:45.971Z,40.35
2022-12-16T23:37:32.247Z,38.47
2022-12-16T23:40:17.734Z,38.33
2022-12-16T23:43:03.067Z,36.70
2022-12-16T23:45:47.974Z,37.78
2022-12-16T23:48:33.565Z,35.20
2022-12-16T23:51:18.337Z,35.10
2022-12-16T23:54:03.806Z,35.17
2022-12-16T23:56:48.670Z,37.05
2022-12-16T23:59:33.414Z,37.50
